Terminal Aerodrome Forecast
Issued by NWS Wilmington, OH

Home | Current Version | Previous Version | Text Only | Print | Product List | Glossary On
Versions: 1 2 3 4 5 6 7 8 9 10 11 12 13 14 15 16 17 18 19 20 21 22 23 24 25 26 27 28 29 30 31 32 33 34
000
FTUS41 KILN 201121
TAFCMH
TAF
KCMH 201121Z 2012/2112 02006KT 4SM -DZ BR OVC005
      TEMPO 2012/2014 2SM -DZ BR OVC004
     FM201500 04006KT 5SM BR OVC005
     FM201800 08004KT P6SM SCT005 OVC007
     FM210000 13007KT P6SM OVC012
     FM210600 18008KT P6SM SCT012 OVC025=

USA.gov is the U.S. government's official web portal to all federal, state and local government web resources and services.